sensor_id;sensor_type;location;lat;lon;timestamp;temperature;humidity
62904;DHT22;49000;50.698;13.322;2023-03-01T00:01:24;-6.60;37.40
62904;DHT22;49000;50.698;13.322;2023-03-01T00:03:51;-7.30;34.80
62904;DHT22;49000;50.698;13.322;2023-03-01T00:06:17;-6.80;32.30
62904;DHT22;49000;50.698;13.322;2023-03-01T00:08:43;-6.80;31.00
62904;DHT22;49000;50.698;13.322;2023-03-01T00:11:14;-6.90;30.90
62904;DHT22;49000;50.698;13.322;2023-03-01T00:13:41;-7.10;30.90
62904;DHT22;49000;50.698;13.322;2023-03-01T00:16:14;-7.20;31.90
62904;DHT22;49000;50.698;13.322;2023-03-01T00:18:40;-7.00;31.40
62904;DHT22;49000;50.698;13.322;2023-03-01T00:21:05;-7.10;30.20
62904;DHT22;49000;50.698;13.322;2023-03-01T00:23:33;-7.50;30.40
62904;DHT22;49000;50.698;13.322;2023-03-01T00:25:59;-7.10;31.80
62904;DHT22;49000;50.698;13.322;2023-03-01T00:28:24;-7.10;34.40
62904;DHT22;49000;50.698;13.322;2023-03-01T00:30:50;-7.50;33.60
62904;DHT22;49000;50.698;13.322;2023-03-01T00:33:15;-7.10;32.00
62904;DHT22;49000;50.698;13.322;2023-03-01T00:35:41;-7.70;30.20
62904;DHT22;49000;50.698;13.322;2023-03-01T00:38:06;-7.20;29.60
62904;DHT22;49000;50.698;13.322;2023-03-01T00:40:34;-7.10;30.10
62904;DHT22;49000;50.698;13.322;2023-03-01T00:43:00;-7.20;33.30
62904;DHT22;49000;50.698;13.322;2023-03-01T00:45:26;-7.40;35.50
62904;DHT22;49000;50.698;13.322;2023-03-01T00:47:52;-7.30;34.00
62904;DHT22;49000;50.698;13.322;2023-03-01T00:50:17;-7.20;34.90
62904;DHT22;49000;50.698;13.322;2023-03-01T00:52:43;-7.00;34.30
62904;DHT22;49000;50.698;13.322;2023-03-01T00:55:09;-7.20;35.70
62904;DHT22;49000;50.698;13.322;2023-03-01T00:57:34;-7.30;39.10
62904;DHT22;49000;50.698;13.322;2023-03-01T01:00:00;-7.40;40.40
62904;DHT22;49000;50.698;13.322;2023-03-01T01:02:26;-7.20;40.90
62904;DHT22;49000;50.698;13.322;2023-03-01T01:04:51;-7.10;43.10
62904;DHT22;49000;50.698;13.322;2023-03-01T01:07:17;-7.70;43.00
62904;DHT22;49000;50.698;13.322;2023-03-01T01:09:45;-7.10;43.70
62904;DHT22;49000;50.698;13.322;2023-03-01T01:12:11;-7.40;48.10
62904;DHT22;49000;50.698;13.322;2023-03-01T01:14:37;-7.30;53.10
62904;DHT22;49000;50.698;13.322;2023-03-01T01:17:02;-7.20;53.40
62904;DHT22;49000;50.698;13.322;2023-03-01T01:19:28;-7.10;53.40
62904;DHT22;49000;50.698;13.322;2023-03-01T01:21:53;-7.20;52.90
62904;DHT22;49000;50.698;13.322;2023-03-01T01:24:19;-7.10;53.80
62904;DHT22;49000;50.698;13.322;2023-03-01T01:26:45;-7.20;55.80
62904;DHT22;49000;50.698;13.322;2023-03-01T01:29:11;-7.20;55.00
62904;DHT22;49000;50.698;13.322;2023-03-01T01:31:38;-6.90;53.90
62904;DHT22;49000;50.698;13.322;2023-03-01T01:34:05;-6.90;53.90
62904;DHT22;49000;50.698;13.322;2023-03-01T01:36:32;-7.10;48.60
62904;DHT22;49000;50.698;13.322;2023-03-01T01:38:58;-7.10;48.60
62904;DHT22;49000;50.698;13.322;2023-03-01T01:41:25;-7.30;49.10
62904;DHT22;49000;50.698;13.322;2023-03-01T01:46:44;-7.40;47.60
62904;DHT22;49000;50.698;13.322;2023-03-01T01:49:22;-7.30;47.70
62904;DHT22;49000;50.698;13.322;2023-03-01T01:51:51;-7.70;43.90
62904;DHT22;49000;50.698;13.322;2023-03-01T01:54:31;-7.80;42.20
62904;DHT22;49000;50.698;13.322;2023-03-01T01:57:02;-7.60;41.70
62904;DHT22;49000;50.698;13.322;2023-03-01T01:59:30;-8.00;41.70
62904;DHT22;49000;50.698;13.322;2023-03-01T02:01:59;-7.60;41.60
62904;DHT22;49000;50.698;13.322;2023-03-01T02:04:26;-7.70;41.70
62904;DHT22;49000;50.698;13.322;2023-03-01T02:06:58;-7.60;40.00
62904;DHT22;49000;50.698;13.322;2023-03-01T02:09:26;-8.30;38.30
62904;DHT22;49000;50.698;13.322;2023-03-01T02:11:53;-7.70;37.20
62904;DHT22;49000;50.698;13.322;2023-03-01T02:14:19;-7.80;37.50
62904;DHT22;49000;50.698;13.322;2023-03-01T02:16:45;-7.80;38.60
62904;DHT22;49000;50.698;13.322;2023-03-01T02:19:23;-7.90;39.90
62904;DHT22;49000;50.698;13.322;2023-03-01T02:22:03;-8.00;40.10
62904;DHT22;49000;50.698;13.322;2023-03-01T02:24:34;-7.90;39.30
62904;DHT22;49000;50.698;13.322;2023-03-01T02:27:03;-8.10;39.00
62904;DHT22;49000;50.698;13.322;2023-03-01T02:29:29;-7.90;35.20
62904;DHT22;49000;50.698;13.322;2023-03-01T02:31:56;-7.80;35.40
62904;DHT22;49000;50.698;13.322;2023-03-01T02:34:25;-7.90;36.70
62904;DHT22;49000;50.698;13.322;2023-03-01T02:37:03;-7.90;36.80
62904;DHT22;49000;50.698;13.322;2023-03-01T02:39:48;-7.90;37.20
62904;DHT22;49000;50.698;13.322;2023-03-01T02:42:20;-7.90;37.00
62904;DHT22;49000;50.698;13.322;2023-03-01T02:44:49;-7.80;35.80
62904;DHT22;49000;50.698;13.322;2023-03-01T02:47:15;-7.90;36.10
62904;DHT22;49000;50.698;13.322;2023-03-01T02:49:40;-8.10;35.90
62904;DHT22;49000;50.698;13.322;2023-03-01T02:52:28;-7.90;35.30
62904;DHT22;49000;50.698;13.322;2023-03-01T02:57:35;-8.10;34.30
62904;DHT22;49000;50.698;13.322;2023-03-01T03:00:05;-8.40;35.30
62904;DHT22;49000;50.698;13.322;2023-03-01T03:02:32;-8.20;36.60
62904;DHT22;49000;50.698;13.322;2023-03-01T03:05:03;-8.00;38.00
62904;DHT22;49000;50.698;13.322;2023-03-01T03:07:32;-8.30;39.20
62904;DHT22;49000;50.698;13.322;2023-03-01T03:09:58;-8.40;38.80
62904;DHT22;49000;50.698;13.322;2023-03-01T03:12:23;-8.40;39.60
62904;DHT22;49000;50.698;13.322;2023-03-01T03:14:49;-8.30;37.70
62904;DHT22;49000;50.698;13.322;2023-03-01T03:17:14;-8.10;36.60
62904;DHT22;49000;50.698;13.322;2023-03-01T03:19:40;-8.00;36.90
62904;DHT22;49000;50.698;13.322;2023-03-01T03:22:05;-8.20;38.30
62904;DHT22;49000;50.698;13.322;2023-03-01T03:24:31;-8.20;36.60
62904;DHT22;49000;50.698;13.322;2023-03-01T03:27:03;-8.30;36.20
62904;DHT22;49000;50.698;13.322;2023-03-01T03:29:29;-8.10;36.60
62904;DHT22;49000;50.698;13.322;2023-03-01T03:31:54;-8.30;38.80
62904;DHT22;49000;50.698;13.322;2023-03-01T03:34:20;-8.40;39.40
62904;DHT22;49000;50.698;13.322;2023-03-01T03:36:45;-8.40;39.60
62904;DHT22;49000;50.698;13.322;2023-03-01T03:39:11;-8.40;40.00
62904;DHT22;49000;50.698;13.322;2023-03-01T03:41:36;-8.40;40.80
62904;DHT22;49000;50.698;13.322;2023-03-01T03:44:02;-8.50;41.60
62904;DHT22;49000;50.698;13.322;2023-03-01T03:46:27;-8.20;40.40
62904;DHT22;49000;50.698;13.322;2023-03-01T03:48:53;-8.90;38.00
62904;DHT22;49000;50.698;13.322;2023-03-01T03:51:19;-8.80;37.90
62904;DHT22;49000;50.698;13.322;2023-03-01T03:53:45;-9.00;38.70
62904;DHT22;49000;50.698;13.322;2023-03-01T03:56:11;-9.00;38.90
62904;DHT22;49000;50.698;13.322;2023-03-01T03:58:37;-8.20;40.00
62904;DHT22;49000;50.698;13.322;2023-03-01T04:01:03;-8.50;37.80
62904;DHT22;49000;50.698;13.322;2023-03-01T04:03:30;-8.40;35.70
62904;DHT22;49000;50.698;13.322;2023-03-01T04:05:59;-8.80;37.90
62904;DHT22;49000;50.698;13.322;2023-03-01T04:08:24;-8.70;37.90
62904;DHT22;49000;50.698;13.322;2023-03-01T04:10:52;-8.60;38.40
62904;DHT22;49000;50.698;13.322;2023-03-01T04:13:22;-8.50;38.50
62904;DHT22;49000;50.698;13.322;2023-03-01T04:15:52;-8.40;37.30
62904;DHT22;49000;50.698;13.322;2023-03-01T04:18:19;-8.30;36.20
62904;DHT22;49000;50.698;13.322;2023-03-01T04:20:45;-8.50;35.50
62904;DHT22;49000;50.698;13.322;2023-03-01T04:23:16;-8.60;38.10
62904;DHT22;49000;50.698;13.322;2023-03-01T04:25:48;-8.70;39.70
62904;DHT22;49000;50.698;13.322;2023-03-01T04:28:21;-8.60;40.10
62904;DHT22;49000;50.698;13.322;2023-03-01T04:30:47;-8.60;41.20
62904;DHT22;49000;50.698;13.322;2023-03-01T04:33:12;-8.70;41.20
62904;DHT22;49000;50.698;13.322;2023-03-01T04:35:38;-8.70;43.00
62904;DHT22;49000;50.698;13.322;2023-03-01T04:38:05;-8.60;44.00
62904;DHT22;49000;50.698;13.322;2023-03-01T04:40:31;-8.40;42.50
62904;DHT22;49000;50.698;13.322;2023-03-01T04:42:57;-8.80;41.10
62904;DHT22;49000;50.698;13.322;2023-03-01T04:45:22;-8.80;37.90
62904;DHT22;49000;50.698;13.322;2023-03-01T04:47:48;-9.20;39.80
62904;DHT22;49000;50.698;13.322;2023-03-01T04:50:16;-8.70;40.50
62904;DHT22;49000;50.698;13.322;2023-03-01T04:52:42;-8.90;39.50
62904;DHT22;49000;50.698;13.322;2023-03-01T04:55:08;-9.00;40.90
62904;DHT22;49000;50.698;13.322;2023-03-01T04:57:34;-8.80;38.80
62904;DHT22;49000;50.698;13.322;2023-03-01T05:00:00;-8.60;40.20
62904;DHT22;49000;50.698;13.322;2023-03-01T05:02:25;-9.20;40.10
62904;DHT22;49000;50.698;13.322;2023-03-01T05:04:51;-9.30;40.70
62904;DHT22;49000;50.698;13.322;2023-03-01T05:07:17;-9.00;39.50
62904;DHT22;49000;50.698;13.322;2023-03-01T05:09:48;-9.30;38.90
62904;DHT22;49000;50.698;13.322;2023-03-01T05:12:14;-9.40;38.50
62904;DHT22;49000;50.698;13.322;2023-03-01T05:14:41;-8.80;37.60
62904;DHT22;49000;50.698;13.322;2023-03-01T05:17:07;-8.90;37.20
62904;DHT22;49000;50.698;13.322;2023-03-01T05:19:32;-8.90;37.00
62904;DHT22;49000;50.698;13.322;2023-03-01T05:21:58;-8.90;40.90
62904;DHT22;49000;50.698;13.322;2023-03-01T05:24:28;-9.20;38.50
62904;DHT22;49000;50.698;13.322;2023-03-01T05:26:54;-9.20;38.40
62904;DHT22;49000;50.698;13.322;2023-03-01T05:29:20;-9.10;38.70
62904;DHT22;49000;50.698;13.322;2023-03-01T05:31:53;-9.10;38.60
62904;DHT22;49000;50.698;13.322;2023-03-01T05:34:33;-9.10;37.10
62904;DHT22;49000;50.698;13.322;2023-03-01T05:36:59;-9.20;38.10
62904;DHT22;49000;50.698;13.322;2023-03-01T05:39:26;-9.30;39.60
62904;DHT22;49000;50.698;13.322;2023-03-01T05:41:57;-9.20;40.60
62904;DHT22;49000;50.698;13.322;2023-03-01T05:44:24;-9.20;41.10
62904;DHT22;49000;50.698;13.322;2023-03-01T05:46:50;-9.10;39.00
62904;DHT22;49000;50.698;13.322;2023-03-01T05:49:15;-9.30;37.30
62904;DHT22;49000;50.698;13.322;2023-03-01T05:51:42;-9.10;37.20
62904;DHT22;49000;50.698;13.322;2023-03-01T05:54:09;-9.00;38.30
62904;DHT22;49000;50.698;13.322;2023-03-01T05:56:36;-9.10;37.60
62904;DHT22;49000;50.698;13.322;2023-03-01T05:59:02;-9.10;37.60
62904;DHT22;49000;50.698;13.322;2023-03-01T06:01:28;-9.50;36.50
62904;DHT22;49000;50.698;13.322;2023-03-01T06:03:55;-9.40;37.20
62904;DHT22;49000;50.698;13.322;2023-03-01T06:06:22;-9.30;36.90
62904;DHT22;49000;50.698;13.322;2023-03-01T06:08:47;-9.30;36.40
62904;DHT22;49000;50.698;13.322;2023-03-01T06:11:13;-9.10;38.20
62904;DHT22;49000;50.698;13.322;2023-03-01T06:13:38;-9.10;38.70
62904;DHT22;49000;50.698;13.322;2023-03-01T06:16:05;-9.10;37.70
62904;DHT22;49000;50.698;13.322;2023-03-01T06:18:31;-9.10;38.30
62904;DHT22;49000;50.698;13.322;2023-03-01T06:20:57;-9.10;36.80
62904;DHT22;49000;50.698;13.322;2023-03-01T06:23:23;-9.00;36.80
62904;DHT22;49000;50.698;13.322;2023-03-01T06:25:48;-9.20;36.40
62904;DHT22;49000;50.698;13.322;2023-03-01T06:28:14;-9.30;37.80
62904;DHT22;49000;50.698;13.322;2023-03-01T06:30:39;-9.10;37.00
62904;DHT22;49000;50.698;13.322;2023-03-01T06:33:05;-9.00;38.60
62904;DHT22;49000;50.698;13.322;2023-03-01T06:35:31;-9.10;40.60
62904;DHT22;49000;50.698;13.322;2023-03-01T06:37:58;-9.10;42.60
62904;DHT22;49000;50.698;13.322;2023-03-01T06:40:24;-8.90;46.00
62904;DHT22;49000;50.698;13.322;2023-03-01T06:42:50;-8.90;48.40
62904;DHT22;49000;50.698;13.322;2023-03-01T06:45:17;-8.80;52.60
62904;DHT22;49000;50.698;13.322;2023-03-01T06:47:43;-9.00;54.50
62904;DHT22;49000;50.698;13.322;2023-03-01T06:50:09;-8.80;52.90
62904;DHT22;49000;50.698;13.322;2023-03-01T06:52:37;-8.60;51.80
62904;DHT22;49000;50.698;13.322;2023-03-01T06:55:03;-8.70;49.50
62904;DHT22;49000;50.698;13.322;2023-03-01T06:57:28;-8.40;46.60
62904;DHT22;49000;50.698;13.322;2023-03-01T06:59:54;-8.60;48.00
62904;DHT22;49000;50.698;13.322;2023-03-01T07:02:19;-8.50;50.30
62904;DHT22;49000;50.698;13.322;2023-03-01T07:04:45;-8.30;49.70
62904;DHT22;49000;50.698;13.322;2023-03-01T07:07:11;-8.50;49.20
62904;DHT22;49000;50.698;13.322;2023-03-01T07:09:36;-8.20;49.30
62904;DHT22;49000;50.698;13.322;2023-03-01T07:12:02;-8.20;49.20
62904;DHT22;49000;50.698;13.322;2023-03-01T07:14:28;-8.20;49.10
62904;DHT22;49000;50.698;13.322;2023-03-01T07:16:54;-8.20;49.10
62904;DHT22;49000;50.698;13.322;2023-03-01T07:19:20;-8.00;49.80
62904;DHT22;49000;50.698;13.322;2023-03-01T07:21:46;-8.10;49.40
62904;DHT22;49000;50.698;13.322;2023-03-01T07:24:12;-8.00;48.10
62904;DHT22;49000;50.698;13.322;2023-03-01T07:26:37;-8.30;47.30
62904;DHT22;49000;50.698;13.322;2023-03-01T07:29:05;-7.80;46.90
62904;DHT22;49000;50.698;13.322;2023-03-01T07:31:31;-7.80;47.50
62904;DHT22;49000;50.698;13.322;2023-03-01T07:33:56;-8.40;47.60
62904;DHT22;49000;50.698;13.322;2023-03-01T07:36:23;-7.60;49.10
62904;DHT22;49000;50.698;13.322;2023-03-01T07:38:48;-7.50;52.90
62904;DHT22;49000;50.698;13.322;2023-03-01T07:41:14;-8.20;53.70
62904;DHT22;49000;50.698;13.322;2023-03-01T07:43:39;-7.60;53.60
62904;DHT22;49000;50.698;13.322;2023-03-01T07:46:05;-7.40;53.80
62904;DHT22;49000;50.698;13.322;2023-03-01T07:48:32;-7.40;53.80
62904;DHT22;49000;50.698;13.322;2023-03-01T07:51:01;-7.30;56.60
62904;DHT22;49000;50.698;13.322;2023-03-01T07:53:27;-7.00;58.70
62904;DHT22;49000;50.698;13.322;2023-03-01T07:56:07;-7.40;59.90
62904;DHT22;49000;50.698;13.322;2023-03-01T07:58:37;-6.90;61.80
62904;DHT22;49000;50.698;13.322;2023-03-01T08:01:04;-7.30;61.00
62904;DHT22;49000;50.698;13.322;2023-03-01T08:03:30;-6.80;60.60
62904;DHT22;49000;50.698;13.322;2023-03-01T08:05:55;-6.50;61.50
62904;DHT22;49000;50.698;13.322;2023-03-01T08:08:21;-6.60;60.20
62904;DHT22;49000;50.698;13.322;2023-03-01T08:10:46;-6.40;60.20
62904;DHT22;49000;50.698;13.322;2023-03-01T08:13:12;-6.20;59.70
62904;DHT22;49000;50.698;13.322;2023-03-01T08:15:37;-6.40;58.90
62904;DHT22;49000;50.698;13.322;2023-03-01T08:18:03;-6.10;58.80
62904;DHT22;49000;50.698;13.322;2023-03-01T08:20:28;-5.90;58.00
62904;DHT22;49000;50.698;13.322;2023-03-01T08:22:54;-5.60;60.30
62904;DHT22;49000;50.698;13.322;2023-03-01T08:25:19;-5.60;62.10
62904;DHT22;49000;50.698;13.322;2023-03-01T08:27:45;-5.50;64.40
62904;DHT22;49000;50.698;13.322;2023-03-01T08:30:11;-5.20;65.40
62904;DHT22;49000;50.698;13.322;2023-03-01T08:32:38;-4.40;61.50
62904;DHT22;49000;50.698;13.322;2023-03-01T08:35:04;-4.00;62.20
62904;DHT22;49000;50.698;13.322;2023-03-01T08:37:30;-3.80;61.00
62904;DHT22;49000;50.698;13.322;2023-03-01T08:40:01;-3.20;60.00
62904;DHT22;49000;50.698;13.322;2023-03-01T08:42:28;-2.80;58.20
62904;DHT22;49000;50.698;13.322;2023-03-01T08:44:54;-2.30;56.30
62904;DHT22;49000;50.698;13.322;2023-03-01T08:47:19;-2.10;52.90
62904;DHT22;49000;50.698;13.322;2023-03-01T08:49:45;-1.80;50.90
62904;DHT22;49000;50.698;13.322;2023-03-01T08:52:10;-1.90;48.00
62904;DHT22;49000;50.698;13.322;2023-03-01T08:54:36;-1.30;47.70
62904;DHT22;49000;50.698;13.322;2023-03-01T08:57:02;-1.00;45.60
62904;DHT22;49000;50.698;13.322;2023-03-01T08:59:28;-0.70;41.80
62904;DHT22;49000;50.698;13.322;2023-03-01T09:01:55;-0.30;41.00
62904;DHT22;49000;50.698;13.322;2023-03-01T09:04:20;-0.40;40.10
62904;DHT22;49000;50.698;13.322;2023-03-01T09:06:46;0.30;39.70
62904;DHT22;49000;50.698;13.322;2023-03-01T09:09:16;0.50;39.00
62904;DHT22;49000;50.698;13.322;2023-03-01T09:11:43;0.60;41.80
62904;DHT22;49000;50.698;13.322;2023-03-01T09:14:09;0.40;39.00
62904;DHT22;49000;50.698;13.322;2023-03-01T09:16:34;0.90;36.60
62904;DHT22;49000;50.698;13.322;2023-03-01T09:19:02;0.90;36.20
62904;DHT22;49000;50.698;13.322;2023-03-01T09:21:28;0.90;36.30
62904;DHT22;49000;50.698;13.322;2023-03-01T09:23:55;1.50;35.50
62904;DHT22;49000;50.698;13.322;2023-03-01T09:26:22;2.00;33.30
62904;DHT22;49000;50.698;13.322;2023-03-01T09:28:49;1.90;33.20
62904;DHT22;49000;50.698;13.322;2023-03-01T09:31:16;2.20;33.00
62904;DHT22;49000;50.698;13.322;2023-03-01T09:33:45;2.70;34.50
62904;DHT22;49000;50.698;13.322;2023-03-01T09:36:16;2.60;30.20
62904;DHT22;49000;50.698;13.322;2023-03-01T09:38:42;2.40;31.00
62904;DHT22;49000;50.698;13.322;2023-03-01T09:41:48;3.10;29.90
62904;DHT22;49000;50.698;13.322;2023-03-01T09:44:36;3.10;30.80
62904;DHT22;49000;50.698;13.322;2023-03-01T09:47:03;3.20;32.30
62904;DHT22;49000;50.698;13.322;2023-03-01T09:49:35;3.20;30.00
62904;DHT22;49000;50.698;13.322;2023-03-01T09:52:26;3.50;29.70
62904;DHT22;49000;50.698;13.322;2023-03-01T09:54:55;3.60;28.60
62904;DHT22;49000;50.698;13.322;2023-03-01T09:57:39;3.20;28.60
62904;DHT22;49000;50.698;13.322;2023-03-01T10:00:16;3.90;25.30
62904;DHT22;49000;50.698;13.322;2023-03-01T10:05:41;3.90;22.40
62904;DHT22;49000;50.698;13.322;2023-03-01T10:08:32;3.90;25.50
62904;DHT22;49000;50.698;13.322;2023-03-01T10:11:02;4.30;19.30
62904;DHT22;49000;50.698;13.322;2023-03-01T10:13:43;3.90;19.50
62904;DHT22;49000;50.698;13.322;2023-03-01T10:19:20;4.30;18.10
62904;DHT22;49000;50.698;13.322;2023-03-01T10:21:49;4.60;20.60
62904;DHT22;49000;50.698;13.322;2023-03-01T10:24:17;4.70;21.20
62904;DHT22;49000;50.698;13.322;2023-03-01T10:26:58;4.90;22.10
62904;DHT22;49000;50.698;13.322;2023-03-01T10:29:34;4.90;22.80
62904;DHT22;49000;50.698;13.322;2023-03-01T10:32:03;4.70;21.90
62904;DHT22;49000;50.698;13.322;2023-03-01T10:34:33;5.40;20.40
62904;DHT22;49000;50.698;13.322;2023-03-01T10:37:27;5.30;11.00
62904;DHT22;49000;50.698;13.322;2023-03-01T10:40:03;5.50;18.00
62904;DHT22;49000;50.698;13.322;2023-03-01T10:42:36;5.70;10.80
62904;DHT22;49000;50.698;13.322;2023-03-01T10:50:46;5.60;17.50
62904;DHT22;49000;50.698;13.322;2023-03-01T10:55:57;6.10;12.00
62904;DHT22;49000;50.698;13.322;2023-03-01T10:58:23;5.50;14.30
62904;DHT22;49000;50.698;13.322;2023-03-01T11:00:52;5.40;16.30
62904;DHT22;49000;50.698;13.322;2023-03-01T11:03:25;5.30;16.60
62904;DHT22;49000;50.698;13.322;2023-03-01T11:08:45;6.10;16.50
62904;DHT22;49000;50.698;13.322;2023-03-01T11:14:00;6.20;15.70
62904;DHT22;49000;50.698;13.322;2023-03-01T11:16:37;6.50;18.00
62904;DHT22;49000;50.698;13.322;2023-03-01T11:22:07;6.40;12.70
62904;DHT22;49000;50.698;13.322;2023-03-01T11:24:47;6.20;15.40
62904;DHT22;49000;50.698;13.322;2023-03-01T11:27:32;6.70;17.00
62904;DHT22;49000;50.698;13.322;2023-03-01T11:33:01;6.90;14.90
62904;DHT22;49000;50.698;13.322;2023-03-01T11:35:29;6.60;14.00
62904;DHT22;49000;50.698;13.322;2023-03-01T11:43:22;7.40;13.40
62904;DHT22;49000;50.698;13.322;2023-03-01T11:48:27;7.60;12.70
62904;DHT22;49000;50.698;13.322;2023-03-01T11:50:57;7.40;9.50
62904;DHT22;49000;50.698;13.322;2023-03-01T11:53:46;7.70;11.30
62904;DHT22;49000;50.698;13.322;2023-03-01T11:56:29;7.90;8.90
62904;DHT22;49000;50.698;13.322;2023-03-01T11:59:15;8.30;10.80
62904;DHT22;49000;50.698;13.322;2023-03-01T12:07:39;7.40;13.20
62904;DHT22;49000;50.698;13.322;2023-03-01T12:10:25;7.40;13.80
62904;DHT22;49000;50.698;13.322;2023-03-01T12:13:03;6.90;14.70
62904;DHT22;49000;50.698;13.322;2023-03-01T12:15:44;6.80;15.40
62904;DHT22;49000;50.698;13.322;2023-03-01T12:21:37;6.60;16.50
62904;DHT22;49000;50.698;13.322;2023-03-01T12:27:29;6.90;16.10
62904;DHT22;49000;50.698;13.322;2023-03-01T12:30:22;7.10;15.40
62904;DHT22;49000;50.698;13.322;2023-03-01T12:33:20;7.40;15.50
62904;DHT22;49000;50.698;13.322;2023-03-01T12:43:57;7.60;15.10
62904;DHT22;49000;50.698;13.322;2023-03-01T12:46:30;7.40;15.30
62904;DHT22;49000;50.698;13.322;2023-03-01T12:49:14;7.00;15.80
62904;DHT22;49000;50.698;13.322;2023-03-01T12:51:44;7.70;15.10
62904;DHT22;49000;50.698;13.322;2023-03-01T12:54:16;7.70;15.60
62904;DHT22;49000;50.698;13.322;2023-03-01T12:56:45;7.90;15.70
62904;DHT22;49000;50.698;13.322;2023-03-01T13:09:55;8.00;16.00
62904;DHT22;49000;50.698;13.322;2023-03-01T13:17:59;7.90;14.90
62904;DHT22;49000;50.698;13.322;2023-03-01T13:20:46;7.90;16.00
62904;DHT22;49000;50.698;13.322;2023-03-01T13:26:15;8.10;16.80
62904;DHT22;49000;50.698;13.322;2023-03-01T13:31:56;8.20;16.80
62904;DHT22;49000;50.698;13.322;2023-03-01T13:33:57;8.20;16.20
62904;DHT22;49000;50.698;13.322;2023-03-01T13:47:01;8.00;18.70
62904;DHT22;49000;50.698;13.322;2023-03-01T13:49:33;7.90;17.00
62904;DHT22;49000;50.698;13.322;2023-03-01T13:52:01;7.80;17.00
62904;DHT22;49000;50.698;13.322;2023-03-01T13:54:32;8.00;16.60
62904;DHT22;49000;50.698;13.322;2023-03-01T13:56:59;7.80;17.70
62904;DHT22;49000;50.698;13.322;2023-03-01T13:59:25;8.30;15.60
62904;DHT22;49000;50.698;13.322;2023-03-01T14:02:01;8.40;17.30
62904;DHT22;49000;50.698;13.322;2023-03-01T14:04:28;8.50;14.40
62904;DHT22;49000;50.698;13.322;2023-03-01T14:07:18;8.60;16.50
62904;DHT22;49000;50.698;13.322;2023-03-01T14:09:47;8.80;16.50
62904;DHT22;49000;50.698;13.322;2023-03-01T14:12:25;8.90;14.50
62904;DHT22;49000;50.698;13.322;2023-03-01T14:17:46;8.90;12.40
62904;DHT22;49000;50.698;13.322;2023-03-01T14:22:43;8.80;15.30
62904;DHT22;49000;50.698;13.322;2023-03-01T14:27:44;8.70;14.60
62904;DHT22;49000;50.698;13.322;2023-03-01T14:30:57;8.40;15.20
62904;DHT22;49000;50.698;13.322;2023-03-01T14:33:06;8.80;15.90
62904;DHT22;49000;50.698;13.322;2023-03-01T14:35:42;8.80;15.30
62904;DHT22;49000;50.698;13.322;2023-03-01T14:38:27;8.90;15.90
62904;DHT22;49000;50.698;13.322;2023-03-01T14:40:58;8.80;15.60
62904;DHT22;49000;50.698;13.322;2023-03-01T14:43:24;9.10;15.00
62904;DHT22;49000;50.698;13.322;2023-03-01T14:45:53;9.20;13.90
62904;DHT22;49000;50.698;13.322;2023-03-01T14:48:19;9.00;15.40
62904;DHT22;49000;50.698;13.322;2023-03-01T14:50:46;9.10;15.40
62904;DHT22;49000;50.698;13.322;2023-03-01T14:53:17;8.70;15.30
62904;DHT22;49000;50.698;13.322;2023-03-01T14:55:46;8.70;16.10
62904;DHT22;49000;50.698;13.322;2023-03-01T14:58:14;8.60;14.70
62904;DHT22;49000;50.698;13.322;2023-03-01T15:00:48;8.80;16.20
62904;DHT22;49000;50.698;13.322;2023-03-01T15:03:23;8.70;15.30
62904;DHT22;49000;50.698;13.322;2023-03-01T15:05:50;8.20;14.90
62904;DHT22;49000;50.698;13.322;2023-03-01T15:08:20;8.20;15.20
62904;DHT22;49000;50.698;13.322;2023-03-01T15:11:05;7.50;17.30
62904;DHT22;49000;50.698;13.322;2023-03-01T15:13:35;7.60;18.10
62904;DHT22;49000;50.698;13.322;2023-03-01T15:16:06;7.40;18.20
62904;DHT22;49000;50.698;13.322;2023-03-01T15:18:33;6.90;19.40
62904;DHT22;49000;50.698;13.322;2023-03-01T15:21:15;7.00;19.10
62904;DHT22;49000;50.698;13.322;2023-03-01T15:23:41;7.00;19.30
62904;DHT22;49000;50.698;13.322;2023-03-01T15:26:24;6.70;18.30
62904;DHT22;49000;50.698;13.322;2023-03-01T15:28:52;6.60;19.50
62904;DHT22;49000;50.698;13.322;2023-03-01T15:31:23;6.50;19.50
62904;DHT22;49000;50.698;13.322;2023-03-01T15:33:50;6.80;19.70
62904;DHT22;49000;50.698;13.322;2023-03-01T15:36:36;6.60;21.40
62904;DHT22;49000;50.698;13.322;2023-03-01T15:39:04;6.70;19.60
62904;DHT22;49000;50.698;13.322;2023-03-01T15:41:51;6.80;20.60
62904;DHT22;49000;50.698;13.322;2023-03-01T15:44:25;7.00;19.80
62904;DHT22;49000;50.698;13.322;2023-03-01T15:46:51;6.80;19.70
62904;DHT22;49000;50.698;13.322;2023-03-01T15:49:39;6.90;19.50
62904;DHT22;49000;50.698;13.322;2023-03-01T15:52:12;6.30;19.00
62904;DHT22;49000;50.698;13.322;2023-03-01T15:54:39;6.00;19.20
62904;DHT22;49000;50.698;13.322;2023-03-01T15:57:14;5.70;19.90
62904;DHT22;49000;50.698;13.322;2023-03-01T15:59:40;5.40;20.50
62904;DHT22;49000;50.698;13.322;2023-03-01T16:02:11;4.60;21.30
62904;DHT22;49000;50.698;13.322;2023-03-01T16:04:38;5.20;21.90
62904;DHT22;49000;50.698;13.322;2023-03-01T16:07:03;5.30;22.00
62904;DHT22;49000;50.698;13.322;2023-03-01T16:09:29;5.40;21.00
62904;DHT22;49000;50.698;13.322;2023-03-01T16:11:54;5.40;21.70
62904;DHT22;49000;50.698;13.322;2023-03-01T16:14:20;5.10;21.40
62904;DHT22;49000;50.698;13.322;2023-03-01T16:16:46;4.80;21.80
62904;DHT22;49000;50.698;13.322;2023-03-01T16:19:13;4.30;22.00
62904;DHT22;49000;50.698;13.322;2023-03-01T16:21:39;4.50;22.00
62904;DHT22;49000;50.698;13.322;2023-03-01T16:24:05;4.20;22.50
62904;DHT22;49000;50.698;13.322;2023-03-01T16:26:31;3.70;23.90
62904;DHT22;49000;50.698;13.322;2023-03-01T16:28:57;3.00;26.00
62904;DHT22;49000;50.698;13.322;2023-03-01T16:31:24;2.40;28.00
62904;DHT22;49000;50.698;13.322;2023-03-01T16:33:53;2.80;29.20
62904;DHT22;49000;50.698;13.322;2023-03-01T16:36:20;2.70;29.40
62904;DHT22;49000;50.698;13.322;2023-03-01T16:38:46;2.80;29.70
62904;DHT22;49000;50.698;13.322;2023-03-01T16:41:13;2.50;29.00
62904;DHT22;49000;50.698;13.322;2023-03-01T16:43:39;2.70;28.10
62904;DHT22;49000;50.698;13.322;2023-03-01T16:46:10;2.80;28.40
62904;DHT22;49000;50.698;13.322;2023-03-01T16:48:36;2.50;27.10
62904;DHT22;49000;50.698;13.322;2023-03-01T16:51:01;2.60;27.00
62904;DHT22;49000;50.698;13.322;2023-03-01T16:53:28;1.90;26.20
62904;DHT22;49000;50.698;13.322;2023-03-01T16:55:57;2.30;26.80
62904;DHT22;49000;50.698;13.322;2023-03-01T16:58:23;2.10;26.40
62904;DHT22;49000;50.698;13.322;2023-03-01T17:00:53;2.20;26.30
62904;DHT22;49000;50.698;13.322;2023-03-01T17:03:23;1.60;26.40
62904;DHT22;49000;50.698;13.322;2023-03-01T17:05:49;1.90;27.20
62904;DHT22;49000;50.698;13.322;2023-03-01T17:08:15;1.30;27.90
62904;DHT22;49000;50.698;13.322;2023-03-01T17:10:41;1.70;29.30
62904;DHT22;49000;50.698;13.322;2023-03-01T17:13:10;1.60;29.20
62904;DHT22;49000;50.698;13.322;2023-03-01T17:15:40;1.20;29.00